North Boulder Creek (79, 238, 626) Station Data

Red Flag Warning: No
Fire Weather Zone: 258
SDGE Region: Mountain Empire
Lat/Lon: 32.98/-116.663

Observations

Time Wind Speed/Gust Temp(F) RH Fuel Moist Fuel Temp(F) Dewpt(F) Tmax(F) Tmin(F) Accum Precip 10-min Precip SL Press(mb)
4/29 11:50pm 39 5 G 7 60° 17% - - 15° 71.5° 54.2° - - -
4/29 11:40pm 48 6 G 8 60° 18% - - 16° 71.5° 54.2° - - -
4/29 11:30pm 41 6 G 8 59° 18% - - 16° 71.5° 54.2° - - -
4/29 11:20pm 46 6 G 8 59° 18% - - 16° 71.5° 54.2° - - -
4/29 11:10pm 47 5 G 5 60° 18% - - 16° 71.5° 54.2° - - -
4/29 11:00pm 42 4 G 5 61° 18% - - 17° 71.5° 54.2° - - -
4/29 10:50pm 32 3 G 4 61° 18% - - 17° 71.5° 54.2° - - -
4/29 10:40pm 23 4 G 4 61° 18% - - 17° 71.5° 54.2° - - -
4/29 10:30pm 23 3 G 4 61° 19% - - 18° 71.5° 54.2° - - -
4/29 10:20pm 39 4 G 5 61° 20% - - 19° 71.5° 54.2° - - -
4/29 10:10pm 41 4 G 6 60° 20% - - 20° 71.5° 54.2° - - -
4/29 10:00pm 42 4 G 5 61° 20% - - 20° 71.5° 54.2° - - -
4/29 9:50pm 53 4 G 5 60° 22% - - 21° 71.5° 54.2° - - -
4/29 9:40pm 52 3 G 4 60° 23% - - 22° 71.5° 54.2° - - -
4/29 9:20pm 48 3 G 5 60° 24% - - 23° 71.5° 54.2° - - -
4/29 9:10pm 38 2 G 3 60° 25% - - 24° 71.5° 54.2° - - -
4/29 9:00pm 48 2 G 3 59° 26% - - 25° 71.5° 54.2° - - -
4/29 8:40pm 72 4 G 5 58° 29% - - 26° 71.5° 54.2° - - -
4/29 8:30pm 81 2 G 4 59° 28% - - 26° 71.5° 54.2° - - -
4/29 8:20pm 250 1 G 2 59° 27% - - 25° 71.5° 54.2° - - -
4/29 8:10pm 0 0 G 0 59° 27% - - 26° 71.5° 54.2° - - -
4/29 8:00pm 1 1 G 2 59° 27% - - 26° 71.5° 54.2° - - -
4/29 7:40pm 329 2 G 4 60° 28% - - 27° 71.5° 54.2° - - -
4/29 7:30pm 316 3 G 4 60° 28% - - 27° 71.5° 54.2° - - -
4/29 7:20pm 314 3 G 4 62° 28% - - 28° 71.5° 54.2° - - -
4/29 7:10pm 280 3 G 5 63° 26% - - 28° 71.5° 54.2° - - -
4/29 7:00pm 278 5 G 9 64° 25% - - 27° 71.5° 54.2° - - -
4/29 6:50pm 273 6 G 9 64° 23% - - 26° 71.5° 54.2° - - -
4/29 6:40pm 269 6 G 9 65° 23% - - 26° 71.5° 54.2° - - -
4/29 6:30pm 257 8 G 12 65° 22% - - 25° 71.5° 54.2° - - -
4/29 6:20pm 264 9 G 14 66° 21% - - 25° 71.5° 54.2° - - -
4/29 6:10pm 267 10 G 14 67° 19% - - 24° 71.5° 54.2° - - -
4/29 6:00pm 267 8 G 14 69° 18% - - 24° 71.5° 54.2° - - -
4/29 5:50pm 277 4 G 9 70° 14% - - 19° 71.5° 54.2° - - -
4/29 5:40pm 134 3 G 8 70° 11% - - 13° 71.5° 54.2° - - -
4/29 5:30pm 57 5 G 13 70° 11% - - 14° 71.5° 54.2° - - -
4/29 5:20pm 26 5 G 12 70° 11% - - 12° 71.5° 54.2° - - -
4/29 5:10pm 91 4 G 12 71° 11% - - 13° 71.5° 54.2° - - -
4/29 5:00pm 227 3 G 6 70° 10% - - 12° 71.5° 54.2° - - -
4/29 4:50pm 63 7 G 13 70° 11% - - 13° 71.5° 54.2° - - -
4/29 4:40pm 84 7 G 15 70° 11% - - 14° 71.5° 54.2° - - -
4/29 4:30pm 41 6 G 16 70° 11% - - 13° 71.5° 54.2° - - -
4/29 4:20pm 52 6 G 14 71° 12% - - 15° 71.5° 54.2° - - -
4/29 4:10pm 56 6 G 12 70° 11% - - 14° 71° 54.2° - - -
4/29 4:00pm 76 6 G 11 70° 12% - - 15° 71° 54.2° - - -
4/29 3:50pm 54 7 G 15 70° 12% - - 14° 71° 54.2° - - -
4/29 3:40pm 93 7 G 14 70° 12% - - 15° 71° 54.2° - - -
4/29 3:30pm 108 10 G 17 69° 12% - - 15° 71° 54.2° - - -
4/29 3:20pm 103 6 G 15 70° 12% - - 15° 71° 54.2° - - -
4/29 3:10pm 100 10 G 17 69° 11% - - 13° 70.3° 54.2° - - -
4/29 3:00pm 86 11 G 19 69° 12% - - 14° 70.3° 54.2° - - -
4/29 2:50pm 79 9 G 20 68° 12% - - 14° 69.9° 54.2° - - -
4/29 2:40pm 92 10 G 19 68° 12% - - 14° 69.5° 54.2° - - -
4/29 2:30pm 94 9 G 16 68° 12% - - 13° 69.2° 54.2° - - -
4/29 2:20pm 114 10 G 16 68° 12% - - 14° 68.9° 54.2° - - -
4/29 2:10pm 84 11 G 18 67° 12% - - 13° 68.9° 54.2° - - -
4/29 2:00pm 95 11 G 17 68° 12% - - 14° 68.9° 54.2° - - -
4/29 1:50pm 99 10 G 19 68° 12% - - 14° 68.9° 54.2° - - -
4/29 1:40pm 76 10 G 21 67° 13% - - 14° 67.9° 54.2° - - -
4/29 1:30pm 69 9 G 18 66° 13% - - 14° 67.4° 54.2° - - -
4/29 1:20pm 95 8 G 16 67° 13% - - 15° 67.4° 54.2° - - -
4/29 1:10pm 103 9 G 18 66° 13% - - 14° 67.4° 54.2° - - -
4/29 1:00pm 100 12 G 19 66° 14% - - 15° 66.5° 54.2° - - -
4/29 12:50pm 95 12 G 21 66° 13% - - 14° 66.3° 54.2° - - -
4/29 12:40pm 118 13 G 23 65° 15% - - 16° 66.3° 54.2° - - -
4/29 12:30pm 107 10 G 17 64° 15% - - 15° 65.5° 54.2° - - -
4/29 12:20pm 102 13 G 22 64° 15% - - 15° 64.9° 54.2° - - -
4/29 12:10pm 83 16 G 27 64° 14% - - 14° 64.9° 54.2° - - -
4/29 12:00pm 89 17 G 27 64° 15% - - 15° 64.9° 54.2° - - -
4/29 11:50am 95 17 G 31 64° 15% - - 15° 64.9° 54.2° - - -
4/29 11:40am 90 17 G 26 63° 15% - - 14° 64.6° 54.2° - - -
4/29 11:30am 81 19 G 31 63° 14% - - 13° 64.6° 54.2° - - -
4/29 11:20am 88 15 G 27 64° 14% - - 14° 64.6° 54.2° - - -
4/29 11:10am 97 16 G 23 63° 14% - - 14° 64.4° 54.2° - - -
4/29 11:00am 102 20 G 31 62° 15% - - 14° 63.6° 54.2° - - -
4/29 10:50am 87 22 G 29 62° 14% - - 12° 63.6° 54.2° - - -
4/29 10:40am 92 20 G 30 62° 14% - - 12° 63.6° 54.2° - - -
4/29 10:30am 84 18 G 27 62° 14% - - 12° 63.6° 54.2° - - -
4/29 10:20am 71 16 G 26 62° 14% - - 13° 63.6° 54.2° - - -
4/29 10:10am 103 11 G 19 62° 14% - - 13° 63.6° 54.2° - - -
4/29 10:00am 126 6 G 12 63° 14% - - 12° 63.6° 54.2° - - -
4/29 9:50am 81 9 G 18 62° 14% - - 12° 63.3° 54.2° - - -
4/29 9:40am 80 16 G 27 61° 14% - - 11° 62.1° 54.2° - - -
4/29 9:30am 73 17 G 27 61° 14% - - 11° 61.7° 54.2° - - -
4/29 9:20am 68 17 G 28 61° 13% - - 10° 61.3° 54.2° - - -
4/29 9:10am 72 17 G 26 60° 13% - - 61.2° 54.2° - - -
4/29 9:00am 64 16 G 27 59° 14% - - 10° 60.9° 54.2° - - -
4/29 8:50am 54 15 G 23 59° 14% - - 11° 60.9° 54.2° - - -
4/29 8:40am 67 18 G 30 58° 14% - - 60.9° 54.2° - - -
4/29 8:30am 76 23 G 35 58° 14% - - 60.9° 54.2° - - -
4/29 8:20am 72 17 G 30 58° 14% - - 10° 60.9° 54.2° - - -
4/29 8:10am 76 20 G 30 57° 14% - - 60.9° 54.2° - - -
4/29 8:00am 74 18 G 30 57° 13% - - 60.9° 54.2° - - -
4/29 7:50am 73 21 G 34 57° 13% - - 60.9° 54.2° - - -
4/29 7:40am 80 24 G 36 57° 12% - - 60.9° 54.2° - - -
4/29 7:30am 77 24 G 35 57° 13% - - 60.9° 54.2° - - -
4/29 7:20am 73 23 G 34 56° 13% - - 60.9° 54.2° - - -
4/29 7:10am 71 18 G 29 56° 14% - - 60.9° 54.2° - - -
4/29 7:00am 71 19 G 32 56° 14% - - 60.9° 54.2° - - -
4/29 6:50am 64 19 G 30 55° 14% - - 60.9° 54.2° - - -
4/29 6:40am 66 20 G 35 55° 15% - - 60.9° 54.2° - - -
4/29 6:30am 65 21 G 35 55° 15% - - 60.9° 54.2° - - -
4/29 6:20am 69 20 G 32 55° 15% - - 60.9° 54.2° - - -
4/29 6:10am 68 19 G 30 55° 15% - - 60.9° 54.2° - - -
4/29 6:00am 72 17 G 27 55° 16% - - 60.9° 54.2° - - -
4/29 5:50am 63 16 G 29 55° 15% - - 60.9° 54.3° - - -
4/29 5:40am 54 15 G 29 55° 15% - - 60.9° 54.3° - - -
4/29 5:30am 64 17 G 30 55° 15% - - 60.9° 54.5° - - -
4/29 5:20am 74 18 G 31 55° 15% - - 60.9° 54.5° - - -
4/29 5:10am 71 17 G 28 55° 15% - - 60.9° 54.5° - - -
4/29 5:00am 72 15 G 28 55° 15% - - 60.9° 54.5° - - -
4/29 4:50am 68 19 G 33 56° 15% - - 60.9° 55.2° - - -
4/29 4:40am 71 18 G 29 56° 15% - - 60.9° 55.3° - - -
4/29 4:30am 77 18 G 31 56° 15% - - 60.9° 55.6° - - -
4/29 4:20am 77 17 G 26 56° 15% - - 60.9° 55.7° - - -
4/29 4:10am 72 17 G 29 56° 15% - - 10° 60.9° 55.7° - - -
4/29 4:00am 66 17 G 26 57° 15% - - 10° 60.9° 56° - - -
4/29 3:50am 69 20 G 30 57° 15% - - 10° 60.9° 56° - - -
4/29 3:40am 65 14 G 24 57° 16% - - 11° 60.9° 56° - - -
4/29 3:30am 66 14 G 23 57° 16% - - 11° 60.9° 56.3° - - -
4/29 3:20am 58 14 G 23 57° 16% - - 11° 60.9° 56.5° - - -
4/29 3:10am 56 13 G 23 57° 16% - - 11° 60.9° 56.6° - - -
4/29 3:00am 69 14 G 28 57° 16% - - 11° 60.9° 56.7° - - -
4/29 2:50am 83 20 G 34 58° 15% - - 11° 60.9° 57.1° - - -
4/29 2:40am 83 19 G 29 58° 15% - - 11° 60.9° 57.3° - - -
4/29 2:30am 68 15 G 26 58° 15% - - 11° 60.9° 57.3° - - -
4/29 2:20am 74 14 G 25 58° 15% - - 11° 60.9° 57.7° - - -
4/29 2:10am 75 15 G 27 59° 15% - - 10° 60.9° 58.1° - - -
4/29 2:00am 71 14 G 25 59° 14% - - 10° 60.9° 58.3° - - -
4/29 1:50am 52 13 G 24 59° 14% - - 10° 60.9° 58.6° - - -
4/29 1:40am 52 12 G 19 59° 15% - - 11° 60.9° 58.6° - - -
4/29 1:30am 57 12 G 20 59° 15% - - 11° 60.9° 58.7° - - -
4/29 1:20am 62 11 G 16 59° 15% - - 12° 60.9° 58.9° - - -
4/29 1:10am 72 14 G 23 60° 16% - - 13° 60.9° 58.9° - - -
4/29 1:00am 84 15 G 24 60° 16% - - 13° 60.9° 58.9° - - -
4/29 12:50am 83 15 G 28 60° 16% - - 14° 60.9° 58.9° - - -
4/29 12:40am 78 14 G 22 60° 17% - - 15° 60.9° 58.9° - - -
4/29 12:30am 80 13 G 21 60° 17% - - 15° 60.9° 58.9° - - -
4/29 12:20am 83 10 G 16 59° 18% - - 15° 60.5° 58.9° - - -
4/29 12:10am 81 12 G 18 60° 17% - - 16° 60.5° 59.3° - - -
4/29 12:00am 79 13 G 19 60° 18% - - 16° 69.2° 49.3° - - -
4/28 11:50pm 79 9 G 13 60° 19% - - 18° 69.2° 49.3° - - -
4/28 11:40pm 81 11 G 16 60° 22% - - 20° 69.2° 49.3° - - -
4/28 11:30pm 89 9 G 14 60° 26% - - 24° 69.2° 49.3° - - -
4/28 11:20pm 90 9 G 14 60° 30% - - 28° 69.2° 49.3° - - -
4/28 11:10pm 48 6 G 10 59° 43% - - 37° 69.2° 49.3° - - -
4/28 11:00pm 29 4 G 8 60° 42% - - 37° 69.2° 49.3° - - -
4/28 10:50pm 21 6 G 8 61° 40% - - 37° 69.2° 49.3° - - -
4/28 10:40pm 38 6 G 9 59° 43% - - 37° 69.2° 49.3° - - -
4/28 10:30pm 44 6 G 10 59° 43% - - 37° 69.2° 49.3° - - -
4/28 10:20pm 50 7 G 9 59° 44% - - 37° 69.2° 49.3° - - -
4/28 10:10pm 47 7 G 9 58° 44% - - 36° 69.2° 49.3° - - -
4/28 10:00pm 49 6 G 9 58° 42% - - 36° 69.2° 49.3° - - -
4/28 9:50pm 52 7 G 9 58° 42% - - 36° 69.2° 49.3° - - -
4/28 9:40pm 53 6 G 7 58° 44% - - 37° 69.2° 49.3° - - -
4/28 9:30pm 69 5 G 6 58° 46% - - 37° 69.2° 49.3° - - -
4/28 9:20pm 75 4 G 5 58° 46% - - 37° 69.2° 49.3° - - -
4/28 9:10pm 65 4 G 5 57° 47% - - 37° 69.2° 49.3° - - -
4/28 9:00pm 73 6 G 7 57° 46% - - 37° 69.2° 49.3° - - -
4/28 8:50pm 59 5 G 7 56° 49% - - 37° 69.2° 49.3° - - -
4/28 8:40pm 56 4 G 6 56° 49% - - 37° 69.2° 49.3° - - -
4/28 8:30pm 213 0 G 1 57° 47% - - 37° 69.2° 49.3° - - -
4/28 8:20pm 48 1 G 3 57° 47% - - 37° 69.2° 49.3° - - -
4/28 8:10pm 42 2 G 3 57° 47% - - 37° 69.2° 49.3° - - -
4/28 8:00pm 6 3 G 4 57° 46% - - 37° 69.2° 49.3° - - -
4/28 7:50pm 342 2 G 2 57° 47% - - 37° 69.2° 49.3° - - -
4/28 7:40pm 300 2 G 3 57° 47% - - 37° 69.2° 49.3° - - -
4/28 7:30pm 292 3 G 6 58° 46% - - 37° 69.2° 49.3° - - -
4/28 7:20pm 302 3 G 4 58° 47% - - 38° 69.2° 49.3° - - -
4/28 7:10pm 299 4 G 6 59° 46% - - 38° 69.2° 49.3° - - -
4/28 7:00pm 280 4 G 5 60° 45% - - 38° 69.2° 49.3° - - -
4/28 6:50pm 276 4 G 6 60° 46% - - 39° 69.2° 49.3° - - -
4/28 6:40pm 271 6 G 10 60° 45% - - 39° 69.2° 49.3° - - -
4/28 6:30pm 274 6 G 8 61° 46% - - 40° 69.2° 49.3° - - -
4/28 6:20pm 274 7 G 11 61° 47% - - 41° 69.2° 49.3° - - -
4/28 6:10pm 286 7 G 10 62° 48% - - 42° 69.2° 49.3° - - -
4/28 6:00pm 283 7 G 9 62° 48% - - 42° 69.2° 49.3° - - -